Overton, Nevada Weather observations

Data are for observation ending at time listed.
 Day   Time    Ave.   Ave.  Ave.  Vector   Max.   Stn.    Total    Solar   Ave.  
  of    of     Air    Rel.  Wind   Wind    Wind   Baro.  Precip.   Rad.    Soil  
Year   Day     Temp.  Hum.  Speed  Dir.    Gust   Pres.                    Temp. 
2016   (PST)    F      %     mph   deg.    mph     mb.     in.     W/m2     F   
------------------------------------------------------------------------------
 210   18:40  105.7    13    3.4    85      8.8   965.8    0.00       4    99999.0
 210   18:50  107.7    12    7.2    97     15.7   965.8    0.00       3    99999.0
 210   19:00  107.6    13   10.8   163     22.1   965.9    0.00       2    99999.0
 210   19:10  107.0    14    4.9   133     12.2   966.3    0.00       0    99999.0
 210   19:20  106.5    14    5.4   149     12.8   966.6    0.00       0    99999.0
 210   19:30  106.0    14    3.2   123      9.5   966.7    0.00       0    99999.0
 210   19:40  105.2    14    2.3   146      5.7   966.9    0.00       0    99999.0
 210   19:50  105.1    14    6.7   188     13.0   966.9    0.00       0    99999.0
 210   20:00  105.4    14    9.6   186     15.9   967.0    0.00       0    99999.0
 210   20:10  104.9    14    8.2   183     13.2   967.0    0.00       0    99999.0
 210   20:20  104.6    14   10.7   176     19.6   967.1    0.00       0    99999.0
 210   20:30  104.5    14   11.4   169     18.4   967.3    0.00       0    99999.0
 210   20:40  104.3    13   11.7   177     19.9   967.3    0.00       0    99999.0
 210   20:50  104.4    13   11.5   178     20.2   967.3    0.00       0    99999.0
 210   21:00  104.6    13   13.6   180     21.4   967.3    0.00       0    99999.0
 210   21:10  104.5    13   11.4   176     16.9   967.4    0.00       0    99999.0
 210   21:20  104.4    13    9.2   186     15.8   967.4    0.00       0    99999.0
 210   21:30  104.0    14    7.2   206     13.4   967.4    0.00       0    99999.0
 210   21:40  103.6    14    6.3   200     10.8   967.4    0.00       0    99999.0
 210   21:50  103.3    14    3.9   171      6.9   967.4    0.00       0    99999.0
 210   22:00  101.2    15    0.8    83      2.3   967.2    0.00       0    99999.0
 210   22:10   99.3    17    1.1    69      2.6   966.9    0.00       0    99999.0
 210   22:20   96.4    20    2.0    26      3.7   966.6    0.00       0    99999.0
 210   22:30   96.4    21    1.6    72      3.8   966.4    0.00       0    99999.0
 210   22:40   95.7    22    0.6   291      2.3   966.2    0.00       0    99999.0
 210   22:50   95.0    22    0.2   288      1.6   966.1    0.00       0    99999.0
 210   23:00   93.6    22    0.7   288      2.0   966.0    0.00       0    99999.0
 210   23:10   92.7    24    0.2    24      1.9   965.9    0.00       0    99999.0
 210   23:20   92.4    25    2.2    36      4.2   965.8    0.00       0    99999.0
 210   23:30   93.4    24    0.3   243      3.2   965.7    0.00       0    99999.0
 210   23:40   93.5    23    2.4   278      4.7   965.6    0.00       0    99999.0
 210   23:50   93.7    22    1.2   292      3.7   965.4    0.00       0    99999.0
 211    0:00   92.9    23    1.3   322      2.6   965.4    0.00       0    99999.0
 211    0:10   91.7    25    3.0   339      5.3   965.3    0.00       0    99999.0
 211    0:20   90.1    27    2.0   328      3.0   965.2    0.00       0    99999.0
 211    0:30   92.1    24    1.6   273      3.2   965.2    0.00       0    99999.0
 211    0:40   92.4    24    1.3   283      3.9   965.2    0.00       0    99999.0
 211    0:50   91.5    25    2.6   304      4.3   965.2    0.00       0    99999.0
 211    1:00   90.5    26    2.6   312      4.2   965.0    0.00       0    99999.0
 211    1:10   89.1    28    2.3   331      3.5   965.0    0.00       0    99999.0
 211    1:20   89.7    26    2.5   310      3.9   964.9    0.00       0    99999.0
 211    1:30   89.6    27    2.2   306      4.7   964.9    0.00       0    99999.0
 211    1:40   88.0    28    2.7   305      4.0   964.9    0.00       0    99999.0
 211    1:50   88.0    28    0.5   285      1.8   964.9    0.00       0    99999.0
 211    2:00   88.8    27    2.3   291      3.7   964.9    0.00       0    99999.0
 211    2:10   87.0    28    3.2   310      4.0   964.9    0.00       0    99999.0
 211    2:20   86.1    30    2.2   321      3.6   964.8    0.00       0    99999.0
 211    2:30   87.8    28    1.9   295      3.1   964.7    0.00       0    99999.0
 211    2:40   88.8    27    1.4   276      2.4   964.7    0.00       0    99999.0
 211    2:50   87.5    28    0.9   286      2.8   964.8    0.00       0    99999.0
 211    3:00   86.0    30    1.1   324      2.6   964.8    0.00       0    99999.0
 211    3:10   85.1    31    1.8   293      3.1   964.8    0.00       0    99999.0
 211    3:20   82.5    35    2.5   331      4.1   964.8    0.00       0    99999.0
 211    3:30   81.2    37    2.2   320      3.6   964.8    0.00       0    99999.0
 211    3:40   83.6    32    1.1   278      2.6   964.8    0.00       0    99999.0
 211    3:50   85.3    30    2.4   251      3.9   964.8    0.00       0    99999.0
 211    4:00   85.3    30    1.4   316      2.9   964.8    0.00       0    99999.0
 211    4:10   83.1    34    2.3   357      3.4   965.0    0.00       0    99999.0
 211    4:20   82.1    37    1.3   353      2.7   965.0    0.00       0    99999.0
 211    4:30   83.6    33    1.2   265      2.8   965.1    0.00       0    99999.0
 211    4:40   84.2    32    1.0   201      2.5   965.1    0.00       1    99999.0
 211    4:50   83.7    32    1.0   256      1.8   965.2    0.00       4    99999.0
 211    5:00   84.2    32    1.2   246      2.4   965.3    0.00       7    99999.0
 211    5:10   82.1    34    2.0   304      3.2   965.3    0.00      11    99999.0
 211    5:20   81.1    37    1.7   324      3.1   965.3    0.00      22    99999.0
 211    5:30   81.1    36    2.4   306      3.9   965.5    0.00      25    99999.0
 211    5:40   82.3    35    0.9   345      2.4   965.5    0.00      36    99999.0
 211    5:50   83.0    34    0.3     9      1.0   965.5    0.00      45    99999.0
 211    6:00   84.2    33    0.9   247      2.3   965.7    0.00      67    99999.0
 211    6:10   85.0    33    0.1     5      1.7   965.7    0.00      63    99999.0
 211    6:20   84.5    34    0.3   346      1.1   965.8    0.00      69    99999.0
 211    6:30   84.8    35    1.0   319      1.7   965.9    0.00     115    99999.0
 211    6:40   85.3    35    1.1    36      2.3   966.1    0.00     120    99999.0
 211    6:50   86.5    33    0.7   291      1.8   966.3    0.00      80    99999.0
 211    7:00   86.6    38    1.5   349      2.3   966.4    0.00      94    99999.0
 211    7:10   86.9    36    1.9   337      2.9   966.5    0.00     291    99999.0
 211    7:20   90.3    31    2.0   360      3.1   966.7    0.00     377    99999.0
 211    7:30   92.1    28    2.4   343      3.7   967.0    0.00     298    99999.0
 211    7:40   93.7    24    3.4   334      5.3   967.2    0.00     382    99999.0
 211    7:50   95.4    21    2.4   335      4.3   967.4    0.00     350    99999.0
 211    8:00   96.1    20    2.6   335      4.0   967.7    0.00     298    99999.0
 211    8:10   96.9    20    1.8   337      2.9   967.8    0.00     427    99999.0
 211    8:20   99.2    18    1.1   342      2.6   967.9    0.00     600    99999.0
 211    8:30  101.3    17    1.2     3      3.6   968.0    0.00     653    99999.0
 211    8:40  102.9    14    1.5    64      3.3   968.3    0.00     685    99999.0
 211    8:50  103.5    15    1.7    92      4.0   968.7    0.00     570    99999.0
 211    9:00  104.1    15    2.5    86      5.6   969.3    0.00     321    99999.0
 211    9:10  104.9    14    1.9    87      4.2   970.0    0.00     422    99999.0
 211    9:20  105.7    14    1.1    75      4.1   970.2    0.00     366    99999.0
 211    9:30  107.2    13    0.7    68      2.7   970.1    0.00     551    99999.0
 211    9:40  106.0    14    1.8   105      4.1   970.0    0.00     402    99999.0
 211    9:50  105.3    14    1.8   145      3.5   969.9    0.00     388    99999.0
 211   10:00  106.3    14    2.1    73      5.0   969.7    0.00     414    99999.0
 211   10:10  106.9    13    3.2    66      5.3   969.9    0.00     660    99999.0
 211   10:20  108.2    13    3.5    57      6.2   970.1    0.00     476    99999.0
 211   10:30  108.9    13    3.0   112      7.3   974.5    0.00     633    99999.0
 211   10:40  107.6    13    2.7    94      6.9   969.4    0.00     256    99999.0
 211   10:50  107.3    13    1.7   160      4.2   969.0    0.00     285    99999.0
 211   11:00  107.6    13    2.1    86      4.7   968.7    0.00     283    99999.0
 211   11:10  108.2    13    2.0    90      4.3   968.4    0.00     243    99999.0
 211   11:20  107.8    13    2.7   126      7.2   968.2    0.00     208    99999.0
 211   11:30  107.0    14    4.4   135      8.3   968.0    0.00     209    99999.0
 211   11:40  107.0    14    2.9   124      6.3   967.9    0.00     254    99999.0
 211   11:50  107.3    14    4.0    88      7.1   967.7    0.00     297    99999.0
 211   12:00  107.4    14    3.4    97      7.7   967.5    0.00     390    99999.0
 211   12:10  109.0    13    3.0   114      6.8   967.5    0.00     642    99999.0
 211   12:20  110.3    12    4.0   107      7.9   967.2    0.00     692    99999.0
 211   12:30  110.5    12    3.9   112      8.6   967.0    0.00     774    99999.0
 211   12:40  112.2    11    3.1   122      7.3   966.8    0.00     913    99999.0
 211   12:50  112.0    12    5.1    74     10.0   966.8    0.00     627    99999.0
 211   13:00  111.7    11    3.3    61      7.1   966.6    0.00     295    99999.0
 211   13:10  111.8    12    1.9     7      3.4   966.5    0.00     321    99999.0
 211   13:20  111.5    11    2.9   316      6.1   966.4    0.00     341    99999.0
 211   13:30  111.8    10    2.1   348      4.2   966.1    0.00     357    99999.0
 211   13:40  112.4    10    2.3   346      5.3   966.0    0.00     390    99999.0
 211   13:50  112.8    11    1.5   354      3.4   965.8    0.00     448    99999.0
 211   14:00  113.6    10    1.9   323      3.5   965.7    0.00     434    99999.0
 211   14:10  113.2    10    2.8    16      5.8   965.6    0.00     407    99999.0
 211   14:20  113.4    10    2.6    36      5.2   965.4    0.00     663    99999.0
 211   14:30  114.3     9    3.4   255      7.4   965.4    0.00     469    99999.0
 211   14:40  113.4     9    3.5   232      8.3   965.2    0.00     291    99999.0
 211   14:50  112.6    10    2.4   183      6.2   965.0    0.00     206    99999.0
 211   15:00  112.5    11    1.6     9      3.4   964.8    0.00     286    99999.0
 211   15:10  113.2    11    3.3    18      4.9   964.6    0.00     495    99999.0
 211   15:20  113.8    10    4.6    26      6.7   964.4    0.00     568    99999.0
 211   15:30  114.6    10    3.8    28      5.8   964.4    0.00     525    99999.0
 211   15:40  114.8    10    4.4    59      8.4   964.5    0.00     532    99999.0
 211   15:50  114.6    10    3.5   117      6.4   964.5    0.00     479    99999.0
 211   16:00  115.3     9    2.3   116      5.1   964.7    0.00     454    99999.0
 211   16:10  114.9     9    3.0   105      7.2   964.7    0.00     311    99999.0
 211   16:20  114.4    10    3.7    59      6.3   964.5    0.00     302    99999.0
 211   16:30  113.9    10    3.1   147      7.6   964.5    0.00     223    99999.0
 211   16:40  113.2    10    2.7   153      5.5   964.3    0.00     119    99999.0
 211   16:50  112.3    11    2.3   162      4.2   964.0    0.00     102    99999.0
 211   17:00  111.6    11    4.9   171      7.9   963.8    0.00      84    99999.0
 211   17:10  111.3    11    2.9   162      6.3   963.5    0.00      69    99999.0
 211   17:20  110.7    11    2.3   202      4.6   963.3    0.00      60    99999.0
 211   17:30  108.8    14    8.8   280     27.3   963.5    0.00      49    99999.0
 211   17:40  106.5    14    9.8   292     22.9   963.7    0.00      42    99999.0
 211   17:50  105.2    16    6.5   355     14.1   962.8    0.00      36    99999.0
 211   18:00  101.9    20    4.9   321      8.5   962.7    0.00      30    99999.0
 211   18:10  104.2    16    2.5   245      6.4   962.7    0.00      22    99999.0
 211   18:20  105.0    14    0.6   210      2.7   962.8    0.00      12    99999.0
 211   18:30  105.0    14    1.7   118      4.7   962.8    0.00       8    99999.0

Return to Overton, Nevada graphs page.


Western Regional Climate Center,wrcc@dri.edu